Shinkaiho — JD3177 — position and weather

sailwx.info

Track history (hours):
 
Tides and Currents Weather Stations Pressure Air Temp Water Temp Dewpoint Dewpoint Depression Visibility Wind Speed Wind Dir Waves Ship Positions

Shinkaiho

Last reported at 2018-Feb-10 02:11 UTC. Time now 2018-Feb-18 06:59 UTC.
Position N 35°16' E 139°46'.
Warning: this ship's position is 8 days out of date.

Length 34 m; draft 4.8 m.

Type: Tug. MMSI: 431002459.

Date/timePositionNaut miles runAvg speedWind from/ knotsBaromVisibWave heightAir tempDewpointWater temp
2018-Feb-10 02:11N 35°16' E 139°46'211.0
2018-Feb-10 02:00N 35°18' E 139°44'510.2
2018-Feb-10 01:30N 35°23' E 139°42'510.4
2018-Feb-10 01:00N 35°28' E 139°42'1 1.6
2018-Feb-10 00:30N 35°27' E 139°41'1 2.7
2018-Feb-09 23:59N 35°27' E 139°43'1 2.0
2018-Feb-09 23:30N 35°27' E 139°44'2 4.3
2018-Feb-09 23:00N 35°25' E 139°46'1 3.1
2018-Feb-09 22:45N 35°25' E 139°46'  
2018-Feb-05 19:57N 41°34' E 141°16'4 6.1
2018-Feb-05 19:22N 41°35' E 141°12'2 6.2
2018-Feb-05 18:58N 41°36' E 141°08'4 7.5
2018-Feb-05 18:29N 41°37' E 141°04'4 7.8
2018-Feb-05 18:00N 41°39' E 140°59'4 7.7
2018-Feb-05 17:30N 41°40' E 140°54'3 6.8
2018-Feb-05 17:00N 41°41' E 140°50'3 6.4
2018-Feb-05 16:29N 41°41' E 140°46'3 5.8
2018-Feb-05 16:00N 41°42' E 140°42'2 4.8
2018-Feb-05 15:30N 41°44' E 140°40'2 4.0
2018-Feb-05 15:00N 41°46' E 140°41'2 3.4
2018-Feb-05 14:30N 41°48' E 140°41'2 1.8
2018-Feb-05 13:34N 41°47' E 140°44'0 0.0
2018-Feb-05 13:16N 41°47' E 140°44'0 0.0
2018-Feb-05 12:51N 41°47' E 140°44'0 0.0
2018-Feb-05 12:10N 41°47' E 140°44'0 0.0
2018-Feb-05 11:58N 41°47' E 140°44'0 0.0
2018-Feb-05 11:28N 41°47' E 140°44'0 0.0
2018-Feb-05 10:55N 41°47' E 140°44'0 0.0
2018-Feb-05 10:28N 41°47' E 140°44'0 0.0
2018-Feb-05 09:37N 41°47' E 140°44'0 0.0
2018-Feb-05 09:25N 41°47' E 140°44'0 0.0
2018-Feb-05 07:55N 41°47' E 140°44'0 0.0
2018-Feb-05 07:25N 41°47' E 140°44'0 0.0
2018-Feb-05 06:55N 41°47' E 140°44'0 0.0
2018-Feb-05 06:28N 41°47' E 140°44'0 0.0
2018-Feb-05 05:19N 41°47' E 140°44'0 0.0
2018-Feb-05 04:58N 41°47' E 140°44'0 0.0
2018-Feb-05 04:28N 41°47' E 140°44'0 0.0
2018-Feb-05 03:58N 41°47' E 140°44'0 0.0
2018-Feb-05 03:28N 41°47' E 140°44'0 0.0
2018-Feb-05 02:58N 41°47' E 140°44'0 0.0
2018-Feb-05 02:25N 41°47' E 140°44'0 0.0
2018-Feb-05 01:55N 41°47' E 140°44'0 0.0
2018-Feb-05 01:28N 41°47' E 140°44'0 0.0
2018-Feb-05 00:55N 41°47' E 140°44'0 0.0
2018-Feb-05 00:25N 41°47' E 140°44'0 0.0
2018-Feb-04 23:55N 41°47' E 140°44'0 0.0
2018-Feb-04 21:55N 41°47' E 140°44'0 0.0
2018-Feb-04 21:10N 41°47' E 140°44'0 0.0
2018-Feb-04 20:55N 41°47' E 140°44'0 0.0
2018-Feb-04 19:49N 41°47' E 140°44'0 0.0
2018-Feb-04 19:25N 41°47' E 140°44'0 0.0
2018-Feb-04 18:49N 41°47' E 140°44'0 0.0
2018-Feb-04 18:16N 41°47' E 140°44'0 0.0
2018-Feb-04 17:55N 41°47' E 140°44'0 0.0
2018-Feb-04 17:25N 41°47' E 140°44'0 0.0
2018-Feb-04 15:22N 41°47' E 140°44'0 0.0
2018-Feb-04 14:52N 41°47' E 140°44'0 0.0
2018-Feb-04 14:25N 41°47' E 140°44'0 0.0
2018-Feb-04 13:49N 41°47' E 140°44'0 0.0
2018-Feb-04 13:25N 41°47' E 140°44'0 0.0
2018-Feb-04 12:49N 41°47' E 140°44'0 0.0
2018-Feb-04 12:25N 41°47' E 140°44'0 0.0
2018-Feb-04 11:55N 41°47' E 140°44'0 0.0
2018-Feb-04 11:25N 41°47' E 140°44'0 0.0
2018-Feb-04 09:58N 41°47' E 140°44'0 0.0
2018-Feb-04 08:55N 41°47' E 140°44'0 0.0
2018-Feb-04 04:19N 41°47' E 140°44'0 0.0
2018-Feb-04 03:04N 41°47' E 140°44'0 0.0
2018-Feb-04 01:22N 41°47' E 140°44'0 0.0
2018-Feb-04 00:55N 41°47' E 140°44'0 0.0
2018-Feb-04 00:13N 41°47' E 140°44'0 0.0
2018-Feb-03 23:49N 41°47' E 140°44'0 0.0
2018-Feb-03 23:25N 41°47' E 140°44'0 0.0
2018-Feb-03 22:58N 41°47' E 140°44'0 0.0
2018-Feb-03 22:25N 41°47' E 140°44'0 0.0
2018-Feb-03 18:04N 41°47' E 140°44'0 0.0
2018-Feb-03 17:49N 41°47' E 140°44'0 0.0
2018-Feb-03 17:25N 41°47' E 140°44'0 0.0
2018-Feb-03 16:40N 41°47' E 140°44'0 0.0
2018-Feb-03 15:25N 41°47' E 140°44'0 0.0
2018-Feb-03 14:58N 41°47' E 140°44'0 0.0
2018-Feb-03 14:25N 41°47' E 140°44'0 0.0
2018-Feb-03 13:49N 41°47' E 140°44'0 0.0
2018-Feb-03 13:28N 41°47' E 140°44'0 0.0
2018-Feb-03 12:55N 41°47' E 140°44'0 0.0
2018-Feb-03 12:25N 41°47' E 140°44'0 0.0
2018-Feb-03 11:58N 41°47' E 140°44'0 0.0
2018-Feb-03 11:28N 41°47' E 140°44'0 0.0
2018-Feb-03 10:52N 41°47' E 140°44'0 0.0
2018-Feb-03 10:28N 41°47' E 140°44'0 0.0
2018-Feb-03 09:55N 41°47' E 140°44'0 0.0
2018-Feb-03 08:08N 41°47' E 140°44'0 0.0
2018-Feb-03 07:49N 41°47' E 140°44'0 0.0
2018-Feb-03 06:16N 41°47' E 140°44'0 0.0
2018-Feb-03 05:55N 41°47' E 140°44'0 0.0
2018-Feb-03 05:19N 41°47' E 140°44'0 0.0
2018-Feb-03 04:40N 41°47' E 140°44'0 0.0
2018-Feb-03 03:58N 41°47' E 140°44'0 0.0
2018-Feb-03 03:22N 41°47' E 140°44'0 0.0
2018-Feb-03 01:43N 41°47' E 140°44'0 0.0
2018-Feb-03 01:28N 41°47' E 140°44'0 0.0
2018-Feb-03 00:49N 41°47' E 140°44'0 0.0
2018-Feb-03 00:28N 41°47' E 140°44'0 0.0
2018-Feb-02 23:58N 41°47' E 140°44'0 0.0
2018-Feb-02 23:28N 41°47' E 140°44'0 0.0
2018-Feb-02 22:46N 41°47' E 140°44'0 0.0
2018-Feb-02 22:25N 41°47' E 140°44'0 0.0
2018-Feb-02 21:58N 41°47' E 140°44'0 0.0
2018-Feb-02 21:28N 41°47' E 140°44'0 0.0
2018-Feb-02 20:55N 41°47' E 140°44'0 0.0
2018-Feb-02 20:31N 41°47' E 140°44'0 0.0
2018-Feb-02 19:58N 41°47' E 140°44'0 0.0
2018-Feb-02 18:58N 41°47' E 140°44'0 0.0
2018-Feb-02 18:28N 41°47' E 140°44'0 0.0
2018-Feb-02 17:58N 41°47' E 140°44'0 0.0
2018-Feb-02 17:28N 41°47' E 140°44'0 0.0
2018-Feb-02 16:58N 41°47' E 140°44'0 0.0
2018-Feb-02 16:28N 41°47' E 140°44'0 0.0
2018-Feb-02 15:28N 41°47' E 140°44'0 0.0
2018-Feb-02 14:28N 41°47' E 140°44'0 0.0
2018-Feb-02 13:58N 41°47' E 140°44'0 0.0
2018-Feb-02 13:28N 41°47' E 140°44'0 0.0
2018-Feb-02 12:58N 41°47' E 140°44'0 0.0
2018-Feb-02 12:28N 41°47' E 140°44'0 0.0
2018-Feb-02 11:58N 41°47' E 140°44'0 0.0
2018-Feb-02 11:28N 41°47' E 140°44'0 0.0
2018-Feb-02 10:52N 41°47' E 140°44'0 0.0
2018-Feb-02 10:25N 41°47' E 140°44'0 0.0
2018-Feb-02 09:58N 41°47' E 140°44'0 0.0
2018-Feb-02 09:28N 41°47' E 140°44'0 0.0
2018-Feb-02 08:58N 41°47' E 140°44'0 0.0
2018-Feb-02 08:28N 41°47' E 140°44'0 0.0
2018-Feb-02 07:58N 41°47' E 140°44'0 0.0
2018-Feb-02 07:28N 41°47' E 140°44'0 0.0
2018-Feb-02 06:55N 41°47' E 140°44'0 0.0
2018-Feb-02 06:28N 41°47' E 140°44'0 0.0
2018-Feb-02 05:55N 41°47' E 140°44'0 0.0
2018-Feb-02 05:28N 41°47' E 140°44'0 0.0
2018-Feb-02 04:58N 41°47' E 140°44'0 0.0
2018-Feb-02 04:28N 41°47' E 140°44'0 0.0
2018-Feb-02 03:58N 41°47' E 140°44'0 0.0
2018-Feb-02 03:28N 41°47' E 140°44'0 0.0
2018-Feb-02 02:58N 41°47' E 140°44'0 0.0
2018-Feb-02 02:22N 41°47' E 140°44'0 0.0
2018-Feb-02 01:34N 41°47' E 140°44'0 0.0
2018-Feb-02 01:28N 41°47' E 140°44'0 0.0
2018-Feb-02 00:58N 41°47' E 140°44'0 0.0
2018-Feb-02 00:28N 41°47' E 140°44'0 0.0
2018-Feb-01 23:52N 41°47' E 140°44'0 0.0
2018-Feb-01 23:28N 41°47' E 140°44'0 0.2
2018-Feb-01 23:00N 41°47' E 140°43'0 0.1
2018-Feb-01 21:59N 41°47' E 140°44'0 0.0
2018-Feb-01 21:29N 41°47' E 140°44'0 0.0
2018-Feb-01 19:29N 41°47' E 140°44'0 0.0
2018-Feb-01 18:59N 41°47' E 140°44'0 0.0
2018-Feb-01 18:29N 41°47' E 140°44'0 0.0
2018-Feb-01 17:56N 41°47' E 140°44'0 0.0
2018-Feb-01 17:29N 41°47' E 140°44'0 0.0
2018-Feb-01 16:59N 41°47' E 140°44'0 0.0
2018-Feb-01 16:29N 41°47' E 140°44'2 4.8
2018-Feb-01 16:01N 41°47' E 140°41'5 9.1
2018-Feb-01 15:30N 41°43' E 140°44'510.0
2018-Feb-01 15:01N 41°40' E 140°49'12 8.2
2018-Feb-01 13:29N 41°33' E 141°03'4 8.8
2018-Feb-01 13:00N 41°31' E 141°08'  
Track history (hours):
 
Tides and Currents Weather Stations Pressure Air Temp Water Temp Dewpoint Dewpoint Depression Visibility Wind Speed Wind Dir Waves Ship Positions

Shinkaiho

Last reported at 2018-Feb-10 02:11 UTC. Time now 2018-Feb-18 06:59 UTC.
Position N 35°16' E 139°46'.
Warning: this ship's position is 8 days out of date.

Length 34 m; draft 4.8 m.

Type: Tug. MMSI: 431002459.

Date/timePositionNaut miles runAvg speedWind from/ knotsBaromVisibWave heightAir tempDewpointWater temp
2018-Feb-10 02:11N 35°16' E 139°46'211.0
2018-Feb-10 02:00N 35°18' E 139°44'510.2
2018-Feb-10 01:30N 35°23' E 139°42'510.4
2018-Feb-10 01:00N 35°28' E 139°42'1 1.6
2018-Feb-10 00:30N 35°27' E 139°41'1 2.7
2018-Feb-09 23:59N 35°27' E 139°43'1 2.0
2018-Feb-09 23:30N 35°27' E 139°44'2 4.3
2018-Feb-09 23:00N 35°25' E 139°46'1 3.1
2018-Feb-09 22:45N 35°25' E 139°46'  
2018-Feb-05 19:57N 41°34' E 141°16'4 6.1
2018-Feb-05 19:22N 41°35' E 141°12'2 6.2
2018-Feb-05 18:58N 41°36' E 141°08'4 7.5
2018-Feb-05 18:29N 41°37' E 141°04'4 7.8
2018-Feb-05 18:00N 41°39' E 140°59'4 7.7
2018-Feb-05 17:30N 41°40' E 140°54'3 6.8
2018-Feb-05 17:00N 41°41' E 140°50'3 6.4
2018-Feb-05 16:29N 41°41' E 140°46'3 5.8
2018-Feb-05 16:00N 41°42' E 140°42'2 4.8
2018-Feb-05 15:30N 41°44' E 140°40'2 4.0
2018-Feb-05 15:00N 41°46' E 140°41'2 3.4
2018-Feb-05 14:30N 41°48' E 140°41'2 1.8
2018-Feb-05 13:34N 41°47' E 140°44'0 0.0
2018-Feb-05 13:16N 41°47' E 140°44'0 0.0
2018-Feb-05 12:51N 41°47' E 140°44'0 0.0
2018-Feb-05 12:10N 41°47' E 140°44'0 0.0
2018-Feb-05 11:58N 41°47' E 140°44'0 0.0
2018-Feb-05 11:28N 41°47' E 140°44'0 0.0
2018-Feb-05 10:55N 41°47' E 140°44'0 0.0
2018-Feb-05 10:28N 41°47' E 140°44'0 0.0
2018-Feb-05 09:37N 41°47' E 140°44'0 0.0
2018-Feb-05 09:25N 41°47' E 140°44'0 0.0
2018-Feb-05 07:55N 41°47' E 140°44'0 0.0
2018-Feb-05 07:25N 41°47' E 140°44'0 0.0
2018-Feb-05 06:55N 41°47' E 140°44'0 0.0
2018-Feb-05 06:28N 41°47' E 140°44'0 0.0
2018-Feb-05 05:19N 41°47' E 140°44'0 0.0
2018-Feb-05 04:58N 41°47' E 140°44'0 0.0
2018-Feb-05 04:28N 41°47' E 140°44'0 0.0
2018-Feb-05 03:58N 41°47' E 140°44'0 0.0
2018-Feb-05 03:28N 41°47' E 140°44'0 0.0
2018-Feb-05 02:58N 41°47' E 140°44'0 0.0
2018-Feb-05 02:25N 41°47' E 140°44'0 0.0
2018-Feb-05 01:55N 41°47' E 140°44'0 0.0
2018-Feb-05 01:28N 41°47' E 140°44'0 0.0
2018-Feb-05 00:55N 41°47' E 140°44'0 0.0
2018-Feb-05 00:25N 41°47' E 140°44'0 0.0
2018-Feb-04 23:55N 41°47' E 140°44'0 0.0
2018-Feb-04 21:55N 41°47' E 140°44'0 0.0
2018-Feb-04 21:10N 41°47' E 140°44'0 0.0
2018-Feb-04 20:55N 41°47' E 140°44'0 0.0
2018-Feb-04 19:49N 41°47' E 140°44'0 0.0
2018-Feb-04 19:25N 41°47' E 140°44'0 0.0
2018-Feb-04 18:49N 41°47' E 140°44'0 0.0
2018-Feb-04 18:16N 41°47' E 140°44'0 0.0
2018-Feb-04 17:55N 41°47' E 140°44'0 0.0
2018-Feb-04 17:25N 41°47' E 140°44'0 0.0
2018-Feb-04 15:22N 41°47' E 140°44'0 0.0
2018-Feb-04 14:52N 41°47' E 140°44'0 0.0
2018-Feb-04 14:25N 41°47' E 140°44'0 0.0
2018-Feb-04 13:49N 41°47' E 140°44'0 0.0
2018-Feb-04 13:25N 41°47' E 140°44'0 0.0
2018-Feb-04 12:49N 41°47' E 140°44'0 0.0
2018-Feb-04 12:25N 41°47' E 140°44'0 0.0
2018-Feb-04 11:55N 41°47' E 140°44'0 0.0
2018-Feb-04 11:25N 41°47' E 140°44'0 0.0
2018-Feb-04 09:58N 41°47' E 140°44'0 0.0
2018-Feb-04 08:55N 41°47' E 140°44'0 0.0
2018-Feb-04 04:19N 41°47' E 140°44'0 0.0
2018-Feb-04 03:04N 41°47' E 140°44'0 0.0
2018-Feb-04 01:22N 41°47' E 140°44'0 0.0
2018-Feb-04 00:55N 41°47' E 140°44'0 0.0
2018-Feb-04 00:13N 41°47' E 140°44'0 0.0
2018-Feb-03 23:49N 41°47' E 140°44'0 0.0
2018-Feb-03 23:25N 41°47' E 140°44'0 0.0
2018-Feb-03 22:58N 41°47' E 140°44'0 0.0
2018-Feb-03 22:25N 41°47' E 140°44'0 0.0
2018-Feb-03 18:04N 41°47' E 140°44'0 0.0
2018-Feb-03 17:49N 41°47' E 140°44'0 0.0
2018-Feb-03 17:25N 41°47' E 140°44'0 0.0
2018-Feb-03 16:40N 41°47' E 140°44'0 0.0
2018-Feb-03 15:25N 41°47' E 140°44'0 0.0
2018-Feb-03 14:58N 41°47' E 140°44'0 0.0
2018-Feb-03 14:25N 41°47' E 140°44'0 0.0
2018-Feb-03 13:49N 41°47' E 140°44'0 0.0
2018-Feb-03 13:28N 41°47' E 140°44'0 0.0
2018-Feb-03 12:55N 41°47' E 140°44'0 0.0
2018-Feb-03 12:25N 41°47' E 140°44'0 0.0
2018-Feb-03 11:58N 41°47' E 140°44'0 0.0
2018-Feb-03 11:28N 41°47' E 140°44'0 0.0
2018-Feb-03 10:52N 41°47' E 140°44'0 0.0
2018-Feb-03 10:28N 41°47' E 140°44'0 0.0
2018-Feb-03 09:55N 41°47' E 140°44'0 0.0
2018-Feb-03 08:08N 41°47' E 140°44'0 0.0
2018-Feb-03 07:49N 41°47' E 140°44'0 0.0
2018-Feb-03 06:16N 41°47' E 140°44'0 0.0
2018-Feb-03 05:55N 41°47' E 140°44'0 0.0
2018-Feb-03 05:19N 41°47' E 140°44'0 0.0
2018-Feb-03 04:40N 41°47' E 140°44'0 0.0
2018-Feb-03 03:58N 41°47' E 140°44'0 0.0
2018-Feb-03 03:22N 41°47' E 140°44'0 0.0
2018-Feb-03 01:43N 41°47' E 140°44'0 0.0
2018-Feb-03 01:28N 41°47' E 140°44'0 0.0
2018-Feb-03 00:49N 41°47' E 140°44'0 0.0
2018-Feb-03 00:28N 41°47' E 140°44'0 0.0
2018-Feb-02 23:58N 41°47' E 140°44'0 0.0
2018-Feb-02 23:28N 41°47' E 140°44'0 0.0
2018-Feb-02 22:46N 41°47' E 140°44'0 0.0
2018-Feb-02 22:25N 41°47' E 140°44'0 0.0
2018-Feb-02 21:58N 41°47' E 140°44'0 0.0
2018-Feb-02 21:28N 41°47' E 140°44'0 0.0
2018-Feb-02 20:55N 41°47' E 140°44'0 0.0
2018-Feb-02 20:31N 41°47' E 140°44'0 0.0
2018-Feb-02 19:58N 41°47' E 140°44'0 0.0
2018-Feb-02 18:58N 41°47' E 140°44'0 0.0
2018-Feb-02 18:28N 41°47' E 140°44'0 0.0
2018-Feb-02 17:58N 41°47' E 140°44'0 0.0
2018-Feb-02 17:28N 41°47' E 140°44'0 0.0
2018-Feb-02 16:58N 41°47' E 140°44'0 0.0
2018-Feb-02 16:28N 41°47' E 140°44'0 0.0
2018-Feb-02 15:28N 41°47' E 140°44'0 0.0
2018-Feb-02 14:28N 41°47' E 140°44'0 0.0
2018-Feb-02 13:58N 41°47' E 140°44'0 0.0
2018-Feb-02 13:28N 41°47' E 140°44'0 0.0
2018-Feb-02 12:58N 41°47' E 140°44'0 0.0
2018-Feb-02 12:28N 41°47' E 140°44'0 0.0
2018-Feb-02 11:58N 41°47' E 140°44'0 0.0
2018-Feb-02 11:28N 41°47' E 140°44'0 0.0
2018-Feb-02 10:52N 41°47' E 140°44'0 0.0
2018-Feb-02 10:25N 41°47' E 140°44'0 0.0
2018-Feb-02 09:58N 41°47' E 140°44'0 0.0
2018-Feb-02 09:28N 41°47' E 140°44'0 0.0
2018-Feb-02 08:58N 41°47' E 140°44'0 0.0
2018-Feb-02 08:28N 41°47' E 140°44'0 0.0
2018-Feb-02 07:58N 41°47' E 140°44'0 0.0
2018-Feb-02 07:28N 41°47' E 140°44'0 0.0
2018-Feb-02 06:55N 41°47' E 140°44'0 0.0
2018-Feb-02 06:28N 41°47' E 140°44'0 0.0
2018-Feb-02 05:55N 41°47' E 140°44'0 0.0
2018-Feb-02 05:28N 41°47' E 140°44'0 0.0
2018-Feb-02 04:58N 41°47' E 140°44'0 0.0
2018-Feb-02 04:28N 41°47' E 140°44'0 0.0
2018-Feb-02 03:58N 41°47' E 140°44'0 0.0
2018-Feb-02 03:28N 41°47' E 140°44'0 0.0
2018-Feb-02 02:58N 41°47' E 140°44'0 0.0
2018-Feb-02 02:22N 41°47' E 140°44'0 0.0
2018-Feb-02 01:34N 41°47' E 140°44'0 0.0
2018-Feb-02 01:28N 41°47' E 140°44'0 0.0
2018-Feb-02 00:58N 41°47' E 140°44'0 0.0
2018-Feb-02 00:28N 41°47' E 140°44'0 0.0
2018-Feb-01 23:52N 41°47' E 140°44'0 0.0
2018-Feb-01 23:28N 41°47' E 140°44'0 0.2
2018-Feb-01 23:00N 41°47' E 140°43'0 0.1
2018-Feb-01 21:59N 41°47' E 140°44'0 0.0
2018-Feb-01 21:29N 41°47' E 140°44'0 0.0
2018-Feb-01 19:29N 41°47' E 140°44'0 0.0
2018-Feb-01 18:59N 41°47' E 140°44'0 0.0
2018-Feb-01 18:29N 41°47' E 140°44'0 0.0
2018-Feb-01 17:56N 41°47' E 140°44'0 0.0
2018-Feb-01 17:29N 41°47' E 140°44'0 0.0
2018-Feb-01 16:59N 41°47' E 140°44'0 0.0
2018-Feb-01 16:29N 41°47' E 140°44'2 4.8
2018-Feb-01 16:01N 41°47' E 140°41'5 9.1
2018-Feb-01 15:30N 41°43' E 140°44'510.0
2018-Feb-01 15:01N 41°40' E 140°49'12 8.2
2018-Feb-01 13:29N 41°33' E 141°03'4 8.8
2018-Feb-01 13:00N 41°31' E 141°08'  

Dump ship's entire track history